Time;durP1;ratioP1;P1;durP2;ratioP2;P2;SDS_P1;SDS_P2;PMS_P1;PMS_P2;Temp;Humidity;BMP_temperature;BMP_pressure;BME280_temperature;BME280_humidity;BME280_pressure;Samples;Min_cycle;Max_cycle;Signal;HPM_P1;HPM_P2
2024/01/07 00:02:14;;;;;;;26.70;11.77;;;;;;;10.66;49.59;101365.16;5053189;28;20040;-65
2024/01/07 00:04:40;;;;;;;24.20;11.25;;;;;;;10.68;48.87;101378.41;5053065;28;20083;-65
2024/01/07 00:07:05;;;;;;;22.10;10.07;;;;;;;10.67;49.52;101365.97;5053071;28;20029;-66
2024/01/07 00:09:31;;;;;;;19.23;9.70;;;;;;;10.65;49.17;101368.78;5052969;28;20039;-65
2024/01/07 00:11:56;;;;;;;19.20;9.70;;;;;;;10.67;48.88;101366.84;5035198;28;20025;-66
2024/01/07 00:14:22;;;;;;;16.88;8.55;;;;;;;10.65;49.03;101379.50;5052981;28;20111;-66
2024/01/07 00:16:47;;;;;;;18.73;9.25;;;;;;;10.63;48.82;101376.09;5053271;28;20037;-65
2024/01/07 00:19:13;;;;;;;20.60;10.10;;;;;;;10.63;49.04;101378.78;5053319;28;20108;-65
2024/01/07 00:21:38;;;;;;;20.50;9.20;;;;;;;10.63;49.50;101376.09;5052599;28;20033;-65
2024/01/07 00:24:04;;;;;;;17.17;9.50;;;;;;;10.63;49.34;101376.09;5054165;28;20096;-66
2024/01/07 00:26:29;;;;;;;20.35;9.75;;;;;;;10.64;49.26;101383.13;5053924;28;20096;-65
2024/01/07 00:28:54;;;;;;;21.38;9.70;;;;;;;10.64;49.21;101388.50;5053813;28;20025;-65
2024/01/07 00:31:20;;;;;;;19.45;8.80;;;;;;;10.63;49.44;101385.94;5052801;28;20490;-65
2024/01/07 00:33:45;;;;;;;20.88;9.18;;;;;;;10.64;49.37;101388.50;5053093;28;20087;-66
2024/01/07 00:36:10;;;;;;;19.65;10.60;;;;;;;10.62;49.19;101385.09;5054109;28;20043;-66
2024/01/07 00:38:36;;;;;;;21.30;9.70;;;;;;;10.61;48.81;101379.84;5055378;28;20030;-66
2024/01/07 00:41:01;;;;;;;18.35;9.23;;;;;;;10.61;48.89;101386.03;5057809;28;20052;-65
2024/01/07 00:43:27;;;;;;;17.55;9.20;;;;;;;10.62;49.46;101387.75;5056761;28;20116;-66
2024/01/07 00:45:52;;;;;;;20.92;9.52;;;;;;;10.62;49.19;101384.22;5056428;28;20033;-65
2024/01/07 00:48:17;;;;;;;22.55;10.05;;;;;;;10.62;49.07;101379.72;5056542;28;20025;-66
2024/01/07 00:50:43;;;;;;;17.00;8.85;;;;;;;10.60;48.89;101387.03;5055090;28;20033;-65
2024/01/07 00:53:08;;;;;;;19.50;9.02;;;;;;;10.58;48.96;101383.59;5055095;28;20049;-65
2024/01/07 00:55:35;;;;;;;15.68;9.00;;;;;;;10.56;49.03;101390.91;5056314;28;20037;-66
2024/01/07 00:58:01;;;;;;;21.00;9.50;;;;;;;10.58;49.25;101391.63;5056051;28;20107;-66
2024/01/07 01:00:27;;;;;;;20.40;9.52;;;;;;;10.57;49.68;101395.31;5056248;28;20061;-65
2024/01/07 01:02:52;;;;;;;16.50;9.38;;;;;;;10.56;49.75;101396.25;5056199;28;20522;-65
2024/01/07 01:05:18;;;;;;;17.27;8.95;;;;;;;10.56;49.61;101401.63;5056349;28;20029;-65
2024/01/07 01:07:43;;;;;;;16.70;8.63;;;;;;;10.56;48.97;101406.13;5056196;28;20124;-65
2024/01/07 01:10:09;;;;;;;21.45;9.52;;;;;;;10.55;49.26;101407.97;5054701;28;20040;-66
2024/01/07 01:12:34;;;;;;;19.45;9.23;;;;;;;10.53;49.43;101413.41;5054838;28;20052;-66
2024/01/07 01:15:00;;;;;;;23.88;10.75;;;;;;;10.53;49.48;101412.56;5055253;28;20125;-65
2024/01/07 01:17:25;;;;;;;16.80;9.13;;;;;;;10.52;49.60;101416.22;5056011;28;20026;-66
2024/01/07 01:19:50;;;;;;;19.73;9.48;;;;;;;10.54;49.67;101425.00;5055951;28;20124;-65
2024/01/07 01:22:16;;;;;;;20.45;10.25;;;;;;;10.53;48.79;101423.28;5055825;28;20029;-65
2024/01/07 01:24:43;;;;;;;21.90;9.82;;;;;;;10.50;48.75;101420.81;5055613;28;20048;-65
2024/01/07 01:27:08;;;;;;;20.17;9.98;;;;;;;10.49;48.93;101422.66;5055795;28;20079;-65
2024/01/07 01:29:34;;;;;;;22.45;10.38;;;;;;;10.51;49.14;101430.56;5055826;28;20507;-65
2024/01/07 01:31:59;;;;;;;22.55;10.52;;;;;;;10.53;49.19;101433.97;5055746;28;20048;-65
2024/01/07 01:34:25;;;;;;;20.48;10.55;;;;;;;10.52;48.84;101427.75;5054661;28;20492;-65
2024/01/07 01:36:50;;;;;;;20.52;9.65;;;;;;;10.54;48.58;101430.34;5055642;28;20147;-66
2024/01/07 01:39:15;;;;;;;20.63;9.55;;;;;;;10.55;48.82;101429.38;5055510;28;20049;-66
2024/01/07 01:41:41;;;;;;;18.48;8.90;;;;;;;10.57;49.23;101437.28;5054052;28;20033;-65
2024/01/07 01:44:06;;;;;;;24.33;10.32;;;;;;;10.56;49.23;101441.78;5055543;28;20056;-65
2024/01/07 01:46:32;;;;;;;22.80;9.88;;;;;;;10.57;49.90;101435.47;5055214;28;20052;-65
2024/01/07 01:48:58;;;;;;;22.30;9.75;;;;;;;10.58;49.27;101441.69;5055377;28;20396;-65
2024/01/07 01:51:23;;;;;;;23.05;9.57;;;;;;;10.57;49.28;101443.50;5053418;28;20079;-65
2024/01/07 01:53:50;;;;;;;23.63;10.40;;;;;;;10.54;48.92;101441.06;5055166;28;20032;-66
2024/01/07 01:56:17;;;;;;;20.52;10.18;;;;;;;10.55;48.54;101453.50;5053545;28;20492;-65
2024/01/07 01:58:42;;;;;;;25.95;11.02;;;;;;;10.53;49.06;101450.06;5053719;28;20033;-65
2024/01/07 02:01:07;;;;;;;23.48;9.10;;;;;;;10.55;48.66;101453.50;5055074;28;20113;-65
2024/01/07 02:03:33;;;;;;;18.20;10.40;;;;;;;10.51;49.19;101457.34;5055023;28;20033;-66
2024/01/07 02:05:58;;;;;;;19.73;9.55;;;;;;;10.53;48.64;101460.78;5054030;28;20033;-65
2024/01/07 02:08:24;;;;;;;25.02;9.45;;;;;;;10.52;48.99;101464.44;5054889;28;20025;-65
2024/01/07 02:10:50;;;;;;;24.90;10.13;;;;;;;10.48;49.18;101465.63;5053577;28;20029;-65
2024/01/07 02:13:15;;;;;;;19.77;9.65;;;;;;;10.45;49.32;101466.69;5054454;28;20029;-64
2024/01/07 02:15:41;;;;;;;24.85;10.13;;;;;;;10.45;49.38;101460.47;5054792;28;20037;-65
2024/01/07 02:18:06;;;;;;;21.08;9.80;;;;;;;10.43;49.31;101465.09;5054574;28;20087;-65
2024/01/07 02:20:31;;;;;;;24.98;10.13;;;;;;;10.45;48.80;101468.50;5054763;28;20029;-64
2024/01/07 02:22:59;;;;;;;25.17;11.27;;;;;;;10.43;49.37;101470.47;5054713;28;20068;-64
2024/01/07 02:25:26;;;;;;;26.40;10.40;;;;;;;10.42;49.20;101468.75;5054752;28;20115;-65
2024/01/07 02:27:51;;;;;;;22.80;10.65;;;;;;;10.37;49.28;101471.75;5052242;28;20049;-65
2024/01/07 02:30:17;;;;;;;21.25;10.45;;;;;;;10.35;49.34;101473.72;5054789;28;20400;-67
2024/01/07 02:32:42;;;;;;;22.73;10.70;;;;;;;10.36;49.41;101474.53;5054909;28;20136;-68
2024/01/07 02:35:08;;;;;;;23.77;10.60;;;;;;;10.38;49.13;101480.66;5036835;28;20040;-67
2024/01/07 02:37:34;;;;;;;26.17;11.00;;;;;;;10.40;49.54;101473.38;5054792;28;20535;-68
2024/01/07 02:39:59;;;;;;;24.38;10.05;;;;;;;10.35;48.67;101473.72;5054812;28;20033;-68
2024/01/07 02:42:24;;;;;;;24.98;10.48;;;;;;;10.33;49.01;101480.97;5054577;28;20040;-68
2024/01/07 02:44:50;;;;;;;18.48;9.50;;;;;;;10.31;49.53;101487.41;5054395;28;20044;-68
2024/01/07 02:47:15;;;;;;;18.95;9.07;;;;;;;10.33;49.59;101486.34;5056048;28;20036;-68
2024/01/07 02:49:40;;;;;;;25.20;8.25;;;;;;;10.34;48.97;101489.88;5056891;28;20557;-68
2024/01/07 02:52:06;;;;;;;20.60;8.68;;;;;;;10.36;49.55;101485.25;5055225;28;20044;-68
2024/01/07 02:54:31;;;;;;;16.80;8.05;;;;;;;10.36;49.63;101491.47;5054552;28;20041;-68
2024/01/07 02:56:57;;;;;;;19.10;7.97;;;;;;;10.38;49.35;101494.06;5054565;28;20405;-68
2024/01/07 02:59:22;;;;;;;21.95;9.13;;;;;;;10.39;49.23;101496.59;5054275;28;20074;-68
2024/01/07 03:01:47;;;;;;;17.25;8.15;;;;;;;10.43;49.24;101497.25;5054808;28;20400;-68
2024/01/07 03:04:16;;;;;;;17.90;8.48;;;;;;;10.44;49.51;101493.59;5053477;28;20056;-68
2024/01/07 03:06:42;;;;;;;20.45;8.50;;;;;;;10.43;49.49;101497.25;5053124;28;20112;-67
2024/01/07 03:09:07;;;;;;;21.42;8.48;;;;;;;10.45;49.68;101489.94;5054760;28;20112;-67
2024/01/07 03:11:33;;;;;;;16.15;7.53;;;;;;;10.43;49.14;101497.25;5054984;28;20029;-68
2024/01/07 03:13:58;;;;;;;16.67;7.47;;;;;;;10.46;49.37;101499.69;5055929;28;20402;-67
2024/01/07 03:16:25;;;;;;;15.75;7.80;;;;;;;10.47;49.85;101502.25;5056096;28;20029;-68
2024/01/07 03:18:51;;;;;;;18.95;7.80;;;;;;;10.48;49.42;101495.06;5057277;28;20029;-68
2024/01/07 03:21:20;;;;;;;14.32;6.82;;;;;;;10.47;49.97;101504.94;5056366;28;20029;-67
2024/01/07 03:23:46;;;;;;;15.85;7.35;;;;;;;10.48;50.04;101503.09;5057072;28;20031;-68
2024/01/07 03:26:11;;;;;;;17.08;6.65;;;;;;;10.48;49.19;101503.09;5055538;28;20071;-68
2024/01/07 03:28:37;;;;;;;15.40;7.00;;;;;;;10.45;49.49;101500.66;5054051;28;20025;-68
2024/01/07 03:31:08;;;;;;;15.25;7.38;;;;;;;10.49;49.59;101507.50;5052356;28;20491;-68
2024/01/07 03:33:33;;;;;;;17.15;7.28;;;;;;;10.47;50.06;101496.03;5052347;28;20061;-68
2024/01/07 03:35:59;;;;;;;14.90;7.30;;;;;;;10.47;49.61;101499.56;5052593;28;20112;-68
2024/01/07 03:38:24;;;;;;;18.90;7.00;;;;;;;10.48;50.08;101503.09;5053601;28;20508;-68
2024/01/07 03:40:49;;;;;;;15.68;7.65;;;;;;;10.47;49.54;101504.94;5053451;28;20060;-65
2024/01/07 03:43:15;;;;;;;17.17;7.53;;;;;;;10.42;49.49;101491.03;5052246;28;20056;-65
2024/01/07 03:45:41;;;;;;;19.17;7.30;;;;;;;10.50;49.17;101504.72;5053172;28;20036;-65
2024/01/07 03:48:06;;;;;;;13.93;5.95;;;;;;;10.52;49.82;101501.94;5053129;28;20400;-65
2024/01/07 03:50:32;;;;;;;14.30;6.80;;;;;;;10.51;49.56;101511.78;5053113;28;20033;-65
2024/01/07 03:52:57;;;;;;;13.57;6.70;;;;;;;10.50;49.03;101499.34;5053071;28;20075;-66
2024/01/07 03:55:23;;;;;;;16.52;6.93;;;;;;;10.47;49.52;101504.06;5053152;28;20037;-65
2024/01/07 03:57:48;;;;;;;17.63;6.82;;;;;;;10.49;49.37;101512.88;5052965;28;20029;-65
2024/01/07 04:00:13;;;;;;;16.75;6.85;;;;;;;10.49;49.51;101518.22;5035194;28;20108;-65
2024/01/07 04:02:39;;;;;;;17.17;7.00;;;;;;;10.49;49.37;101521.78;5052870;28;20035;-65
2024/01/07 04:05:04;;;;;;;14.10;6.57;;;;;;;10.48;49.47;101519.19;5052687;28;20582;-65
2024/01/07 04:07:30;;;;;;;17.85;6.82;;;;;;;10.49;49.74;101523.59;5052390;28;20071;-65
2024/01/07 04:09:56;;;;;;;15.45;7.20;;;;;;;10.52;49.15;101534.06;5052741;28;20025;-65
2024/01/07 04:12:21;;;;;;;17.30;6.68;;;;;;;10.52;49.28;101528.72;5052729;28;20025;-64
2024/01/07 04:14:47;;;;;;;17.90;7.47;;;;;;;10.51;49.49;101527.00;5052963;28;20074;-65
2024/01/07 04:17:12;;;;;;;15.45;6.70;;;;;;;10.52;49.85;101534.06;5057196;28;20032;-65
2024/01/07 04:19:40;;;;;;;12.63;6.45;;;;;;;10.48;49.93;101536.13;5056652;28;20095;-65
2024/01/07 04:22:06;;;;;;;16.50;8.18;;;;;;;10.51;49.80;101533.22;5057194;28;20017;-65
2024/01/07 04:24:31;;;;;;;17.75;7.35;;;;;;;10.51;49.68;101537.72;5056442;28;20060;-65
2024/01/07 04:26:56;;;;;;;18.13;7.15;;;;;;;10.49;49.06;101534.28;5055828;28;20082;-66
2024/01/07 04:29:22;;;;;;;14.88;7.18;;;;;;;10.48;49.32;101535.25;5055406;28;20017;-66
2024/01/07 04:31:47;;;;;;;13.63;7.07;;;;;;;10.45;49.95;101549.72;5057095;28;20055;-66
2024/01/07 04:34:13;;;;;;;19.00;7.32;;;;;;;10.48;49.12;101556.69;5056544;28;20052;-65
2024/01/07 04:36:38;;;;;;;13.90;6.63;;;;;;;10.46;49.63;101555.94;5056905;28;20469;-64
2024/01/07 04:39:03;;;;;;;15.05;6.80;;;;;;;10.46;49.98;101558.63;5055586;28;20083;-65
2024/01/07 04:41:29;;;;;;;15.20;7.38;;;;;;;10.42;48.65;101551.75;5055500;28;20028;-65
2024/01/07 04:43:54;;;;;;;14.00;6.38;;;;;;;10.45;49.75;101560.44;5056878;28;20555;-65
2024/01/07 04:46:20;;;;;;;11.50;5.80;;;;;;;10.40;49.34;101556.38;5056890;28;20389;-64
2024/01/07 04:48:45;;;;;;;15.48;7.28;;;;;;;10.43;49.10;101558.84;5056141;28;20017;-65
2024/01/07 04:51:10;;;;;;;14.02;6.18;;;;;;;10.42;49.57;101570.50;5057312;28;20035;-68
2024/01/07 04:53:36;;;;;;;13.23;6.57;;;;;;;10.39;49.47;101570.72;5056860;28;20025;-68
2024/01/07 04:56:02;;;;;;;16.10;7.47;;;;;;;10.37;49.26;101572.66;5056887;28;20092;-68
2024/01/07 04:58:28;;;;;;;14.13;6.53;;;;;;;10.37;49.96;101570.84;5056960;28;20060;-68
2024/01/07 05:00:53;;;;;;;11.50;6.38;;;;;;;10.36;49.65;101566.44;5058348;28;20024;-68
2024/01/07 05:03:18;;;;;;;13.48;5.80;;;;;;;10.32;50.01;101573.00;5061401;28;20071;-68
2024/01/07 05:05:44;;;;;;;13.02;6.43;;;;;;;10.22;49.75;101561.22;5058944;28;20068;-68
2024/01/07 05:08:09;;;;;;;12.25;6.55;;;;;;;10.27;49.12;101582.31;5056433;28;20021;-68
2024/01/07 05:10:34;;;;;;;11.65;5.95;;;;;;;10.25;49.41;101579.75;5055233;28;20067;-68
2024/01/07 05:13:04;;;;;;;10.13;5.70;;;;;;;10.22;49.47;101579.97;5056493;28;20036;-68
2024/01/07 05:15:30;;;;;;;16.13;6.75;;;;;;;10.20;49.70;101581.91;5056354;28;20380;-68
2024/01/07 05:17:55;;;;;;;9.77;5.60;;;;;;;10.20;49.63;101579.22;5055175;28;20112;-68
2024/01/07 05:20:21;;;;;;;13.90;6.90;;;;;;;10.21;49.34;101582.75;5054833;28;20115;-68
2024/01/07 05:22:46;;;;;;;12.88;6.82;;;;;;;10.23;49.54;101591.53;5056086;28;20033;-68
2024/01/07 05:25:12;;;;;;;12.15;6.25;;;;;;;10.24;50.10;101595.94;5054708;28;20033;-68
2024/01/07 05:27:37;;;;;;;16.48;6.68;;;;;;;10.24;49.90;101587.91;5054942;28;20033;-68
2024/01/07 05:30:03;;;;;;;14.13;5.45;;;;;;;10.20;49.35;101592.59;5055888;28;20111;-68
2024/01/07 05:32:28;;;;;;;15.85;7.72;;;;;;;10.21;49.09;101598.81;5056056;28;20056;-68
2024/01/07 05:34:54;;;;;;;14.80;6.55;;;;;;;10.23;49.30;101604.91;5055721;28;20029;-68
2024/01/07 05:37:19;;;;;;;12.00;6.80;;;;;;;10.23;49.08;101599.56;5055901;28;20040;-68
2024/01/07 05:39:44;;;;;;;14.15;6.50;;;;;;;10.27;50.27;101611.78;5054327;28;20025;-68
2024/01/07 05:42:10;;;;;;;14.13;7.70;;;;;;;10.27;49.79;101612.59;5055836;28;20029;-68
2024/01/07 05:44:35;;;;;;;17.05;7.07;;;;;;;10.29;49.02;101617.88;5054613;28;20096;-68
2024/01/07 05:47:01;;;;;;;15.60;7.68;;;;;;;10.26;49.31;101607.38;5055934;28;20029;-68
2024/01/07 05:49:26;;;;;;;14.52;7.07;;;;;;;10.30;49.28;101623.09;5055435;28;20056;-68
2024/01/07 05:51:52;;;;;;;14.40;6.90;;;;;;;10.31;49.04;101626.66;5054590;28;20112;-68
2024/01/07 05:54:17;;;;;;;18.70;7.75;;;;;;;10.30;49.61;101624.94;5055821;28;20033;-68
2024/01/07 05:56:43;;;;;;;13.65;7.32;;;;;;;10.32;49.13;101623.00;5055682;28;20087;-68
2024/01/07 05:59:09;;;;;;;16.42;7.32;;;;;;;10.24;49.59;101620.03;5055150;28;20052;-68
2024/01/07 06:01:34;;;;;;;15.63;6.93;;;;;;;10.30;48.85;101633.00;5054063;28;20032;-65
2024/01/07 06:04:00;;;;;;;15.13;7.47;;;;;;;10.30;49.58;101635.66;5054989;28;20029;-65
2024/01/07 06:06:25;;;;;;;16.65;8.32;;;;;;;10.31;48.64;101645.38;5055127;28;20413;-65
2024/01/07 06:08:51;;;;;;;17.85;7.82;;;;;;;10.29;49.39;101644.66;5037290;28;20033;-65
2024/01/07 06:11:20;;;;;;;14.63;6.70;;;;;;;10.33;49.26;101651.53;5053815;28;20095;-65
2024/01/07 06:13:45;;;;;;;15.85;8.02;;;;;;;10.32;49.03;101650.66;5055353;28;20029;-65
2024/01/07 06:16:11;;;;;;;16.25;8.95;;;;;;;10.29;49.04;101656.22;5049986;28;20097;-65
2024/01/07 06:18:36;;;;;;;21.27;9.60;;;;;;;10.28;49.38;101654.50;5065548;28;20044;-65
2024/01/07 06:21:02;;;;;;;17.63;8.27;;;;;;;10.29;49.35;101655.34;5054907;28;20025;-66
2024/01/07 06:23:27;;;;;;;19.58;8.63;;;;;;;10.24;49.53;101655.69;5054881;28;20033;-65
2024/01/07 06:25:53;;;;;;;19.80;8.18;;;;;;;10.28;49.56;101664.34;5054600;28;20033;-65
2024/01/07 06:28:18;;;;;;;16.73;8.15;;;;;;;10.25;49.55;101665.41;5055085;28;20108;-65
2024/01/07 06:30:43;;;;;;;17.05;7.70;;;;;;;10.25;48.95;101665.41;5055147;28;20029;-65
2024/01/07 06:33:09;;;;;;;19.08;8.38;;;;;;;10.27;49.53;101668.84;5054813;28;20102;-66
2024/01/07 06:35:34;;;;;;;17.20;6.93;;;;;;;10.26;49.34;101666.28;5054457;28;20083;-65
2024/01/07 06:37:59;;;;;;;14.85;6.32;;;;;;;10.26;49.51;101666.28;5052999;28;20395;-64
2024/01/07 06:40:25;;;;;;;12.13;6.63;;;;;;;10.25;48.88;101676.13;5054610;28;20048;-65
2024/01/07 06:42:51;;;;;;;17.23;6.65;;;;;;;10.23;49.04;101675.38;5054612;28;20037;-65
2024/01/07 06:45:17;;;;;;;12.80;5.93;;;;;;;10.20;49.19;101685.44;5054752;28;20029;-66
2024/01/07 06:47:42;;;;;;;13.68;6.63;;;;;;;10.18;48.76;101679.34;5054216;28;20439;-66
2024/01/07 06:50:09;;;;;;;17.98;7.72;;;;;;;10.17;49.29;101689.19;5054524;28;20033;-65
2024/01/07 06:52:35;;;;;;;16.85;7.70;;;;;;;10.20;49.33;101690.78;5054136;28;20033;-65
2024/01/07 06:55:00;;;;;;;13.98;6.60;;;;;;;10.19;49.58;101694.47;5054403;28;20108;-65
2024/01/07 06:57:26;;;;;;;16.17;7.47;;;;;;;10.20;49.13;101698.81;5054517;28;20488;-66
2024/01/07 06:59:51;;;;;;;15.32;7.97;;;;;;;10.19;49.09;101699.81;5054096;28;20037;-65
2024/01/07 07:02:17;;;;;;;15.35;7.78;;;;;;;10.18;49.02;101703.44;5054128;28;20025;-65
2024/01/07 07:04:42;;;;;;;15.18;8.02;;;;;;;10.17;48.86;101704.38;5053007;28;20484;-65
2024/01/07 07:07:07;;;;;;;19.33;7.85;;;;;;;10.17;48.67;101705.25;5054516;28;20037;-65
2024/01/07 07:09:34;;;;;;;18.05;7.45;;;;;;;10.17;49.69;101709.75;5055219;28;20029;-65
2024/01/07 07:11:59;;;;;;;12.20;7.30;;;;;;;10.14;48.64;101715.31;5055996;28;20404;-65
2024/01/07 07:14:25;;;;;;;17.05;8.55;;;;;;;10.13;49.17;101722.50;5056035;28;20029;-65
2024/01/07 07:16:50;;;;;;;12.77;7.15;;;;;;;10.12;49.00;101722.56;5058700;28;20087;-65
2024/01/07 07:19:16;;;;;;;13.77;7.85;;;;;;;10.14;49.11;101731.38;5056947;28;20455;-65
2024/01/07 07:21:43;;;;;;;16.02;7.43;;;;;;;10.16;49.39;101732.97;5056805;28;20119;-65
2024/01/07 07:24:08;;;;;;;19.42;8.05;;;;;;;10.17;49.48;101747.22;5057411;28;20053;-65
2024/01/07 07:26:35;;;;;;;17.00;8.10;;;;;;;10.15;48.93;101741.13;5056820;28;20132;-66
2024/01/07 07:29:01;;;;;;;12.63;7.50;;;;;;;10.14;49.22;101752.78;5056706;28;20059;-66
2024/01/07 07:31:27;;;;;;;20.50;8.63;;;;;;;10.12;49.60;101749.31;5053998;28;20037;-65
2024/01/07 07:33:52;;;;;;;18.52;8.13;;;;;;;10.13;48.80;101756.44;5052729;28;20033;-65
2024/01/07 07:36:18;;;;;;;18.98;8.20;;;;;;;10.11;49.16;101763.66;5052388;28;20036;-65
2024/01/07 07:38:43;;;;;;;16.15;8.55;;;;;;;10.07;48.93;101763.03;5053132;28;20033;-64
2024/01/07 07:41:08;;;;;;;18.02;7.57;;;;;;;10.08;49.16;101775.44;5053638;28;20603;-64
2024/01/07 07:43:34;;;;;;;14.77;7.72;;;;;;;10.05;49.29;101775.63;5053572;28;20410;-65
2024/01/07 07:46:01;;;;;;;15.60;7.63;;;;;;;9.98;49.17;101774.34;5053836;28;20060;-65
2024/01/07 07:48:27;;;;;;;15.05;7.90;;;;;;;10.01;48.67;101784.00;5052219;28;20026;-65
2024/01/07 07:50:53;;;;;;;18.58;8.52;;;;;;;10.00;49.02;101793.84;5052648;28;20034;-64
2024/01/07 07:53:18;;;;;;;14.27;8.98;;;;;;;9.93;48.84;101798.75;5072022;28;20028;-65
2024/01/07 07:55:44;;;;;;;15.88;7.47;;;;;;;9.92;48.25;101797.03;5078099;28;20028;-65
2024/01/07 07:58:09;;;;;;;13.80;6.50;;;;;;;9.92;48.85;101802.38;5091855;28;20089;-64
2024/01/07 08:00:34;;;;;;;12.63;6.97;;;;;;;9.91;49.47;101814.03;5093163;28;20060;-65
2024/01/07 08:03:00;;;;;;;13.52;8.15;;;;;;;9.79;49.00;101806.81;5093116;28;20515;-64
2024/01/07 08:05:25;;;;;;;13.45;7.57;;;;;;;9.84;49.18;101820.75;5092866;28;20403;-65
2024/01/07 08:07:50;;;;;;;13.93;7.63;;;;;;;9.81;49.98;101823.63;5093054;28;20062;-65
2024/01/07 08:10:16;;;;;;;13.25;6.70;;;;;;;9.78;49.13;101821.16;5092993;28;20518;-65
2024/01/07 08:12:41;;;;;;;13.55;6.72;;;;;;;9.77;49.35;101824.78;5093058;28;20081;-65
2024/01/07 08:15:07;;;;;;;14.60;5.97;;;;;;;9.76;49.40;101828.44;5093071;28;20029;-64
2024/01/07 08:17:33;;;;;;;13.07;7.30;;;;;;;9.74;49.08;101827.63;5093199;28;20028;-64
2024/01/07 08:19:58;;;;;;;10.82;6.75;;;;;;;9.70;48.78;101828.81;5093085;28;20607;-64
2024/01/07 08:22:23;;;;;;;11.13;6.03;;;;;;;9.70;49.61;101839.50;5080184;28;20442;-66
2024/01/07 08:24:50;;;;;;;13.82;6.63;;;;;;;9.66;49.40;101843.34;5059153;28;20037;-64
2024/01/07 08:27:15;;;;;;;10.60;6.78;;;;;;;9.63;49.24;101851.56;5052929;28;20447;-64
2024/01/07 08:29:43;;;;;;;10.15;5.75;;;;;;;9.59;48.89;101847.38;5052742;28;20033;-64
2024/01/07 08:32:09;;;;;;;11.80;7.03;;;;;;;9.61;48.84;101857.97;5051558;28;20040;-65
2024/01/07 08:34:34;;;;;;;13.82;6.18;;;;;;;9.61;49.18;101856.16;5052748;28;20025;-64
2024/01/07 08:37:00;;;;;;;12.70;6.88;;;;;;;9.56;49.30;101858.25;5052680;28;20029;-64
2024/01/07 08:39:25;;;;;;;13.98;7.20;;;;;;;9.58;49.58;101860.81;5052414;28;20036;-64
2024/01/07 08:41:51;;;;;;;13.20;6.32;;;;;;;9.56;48.96;101858.25;5052821;28;20079;-64
2024/01/07 08:44:16;;;;;;;12.23;5.78;;;;;;;9.57;49.47;101856.44;5052667;28;20515;-64
2024/01/07 08:46:42;;;;;;;15.27;7.15;;;;;;;9.54;49.03;101860.19;5057856;28;20519;-65
2024/01/07 08:49:07;;;;;;;13.00;8.10;;;;;;;9.54;49.36;101862.84;5069230;28;20488;-65
2024/01/07 08:51:32;;;;;;;12.05;7.07;;;;;;;9.55;49.58;101859.19;5067850;28;20179;-65
2024/01/07 08:53:58;;;;;;;14.52;7.47;;;;;;;9.58;49.78;101869.72;5052237;28;20035;-65
2024/01/07 08:56:25;;;;;;;15.98;8.07;;;;;;;9.59;49.25;101874.13;5052458;28;20039;-65
2024/01/07 08:58:50;;;;;;;16.33;7.50;;;;;;;9.60;49.27;101870.50;5052391;28;20561;-64
2024/01/07 09:01:15;;;;;;;17.85;8.65;;;;;;;9.59;49.22;101867.91;5054587;28;20041;-65
2024/01/07 09:03:42;;;;;;;19.50;8.32;;;;;;;9.62;49.04;101876.59;5060865;28;20056;-65
2024/01/07 09:06:07;;;;;;;20.02;8.57;;;;;;;9.63;49.28;101880.97;5076655;28;20036;-65
2024/01/07 09:08:34;;;;;;;14.63;7.80;;;;;;;9.63;49.04;101883.66;5076196;28;20087;-64
2024/01/07 09:11:00;;;;;;;17.95;8.38;;;;;;;9.62;49.37;101883.75;5075920;28;20060;-65
2024/01/07 09:13:25;;;;;;;16.08;8.20;;;;;;;9.64;49.29;101889.88;5075960;28;20467;-66
2024/01/07 09:15:51;;;;;;;19.17;7.82;;;;;;;9.64;49.12;101897.88;5074557;28;20563;-65
2024/01/07 09:18:16;;;;;;;16.02;8.10;;;;;;;9.65;49.68;101894.25;5075701;28;20028;-64
2024/01/07 09:20:41;;;;;;;16.63;8.43;;;;;;;9.66;48.95;101904.84;5075767;28;20028;-64
2024/01/07 09:23:07;;;;;;;15.02;7.55;;;;;;;9.68;49.28;101900.28;5075728;28;20399;-65
2024/01/07 09:25:32;;;;;;;15.75;7.93;;;;;;;9.70;48.91;101902.84;5090067;28;20050;-64
2024/01/07 09:27:58;;;;;;;20.95;8.02;;;;;;;9.71;48.96;101916.16;5095624;28;20403;-64
2024/01/07 09:30:23;;;;;;;15.98;7.32;;;;;;;9.70;48.86;101914.41;5096037;28;20060;-64
2024/01/07 09:32:50;;;;;;;17.73;8.18;;;;;;;9.67;49.10;101916.41;5097361;28;20033;-65
2024/01/07 09:35:15;;;;;;;14.10;7.35;;;;;;;9.66;48.71;101918.22;5097307;28;20064;-65
2024/01/07 09:37:40;;;;;;;14.75;7.82;;;;;;;9.64;48.81;101925.50;5094513;28;20058;-65
2024/01/07 09:40:06;;;;;;;13.75;7.60;;;;;;;9.63;49.15;101923.78;5092087;28;20060;-64
2024/01/07 09:42:32;;;;;;;16.40;7.53;;;;;;;9.65;49.02;101921.88;5075374;28;20037;-65
2024/01/07 09:45:01;;;;;;;13.90;7.45;;;;;;;9.61;49.06;101925.69;5075309;28;20074;-65
2024/01/07 09:47:26;;;;;;;13.80;6.45;;;;;;;9.58;49.35;101931.22;5053972;28;20082;-66
2024/01/07 09:49:52;;;;;;;14.18;7.35;;;;;;;9.53;49.05;101938.69;5055417;28;20029;-65
2024/01/07 09:52:18;;;;;;;12.50;7.22;;;;;;;9.52;48.91;101934.28;5054104;28;20036;-65
2024/01/07 09:54:45;;;;;;;14.68;6.80;;;;;;;9.51;49.65;101943.28;5055414;28;20036;-66
2024/01/07 09:57:11;;;;;;;15.10;7.80;;;;;;;9.51;48.93;101940.59;5053707;28;20110;-65
2024/01/07 09:59:39;;;;;;;16.45;8.40;;;;;;;9.51;49.20;101940.59;5055004;28;20063;-64
2024/01/07 10:02:04;;;;;;;12.82;7.45;;;;;;;9.51;49.28;101950.44;5055162;28;20041;-69
2024/01/07 10:04:30;;;;;;;14.20;7.82;;;;;;;9.47;49.36;101949.75;5055014;28;20035;-74
2024/01/07 10:06:56;;;;;;;13.63;7.78;;;;;;;9.43;49.20;101948.25;5055291;28;20037;-67
2024/01/07 10:09:28;;;;;;;15.20;7.38;;;;;;;9.44;50.11;101952.63;5054762;28;20083;-66
2024/01/07 10:11:54;;;;;;;17.23;9.40;;;;;;;9.42;49.15;101956.34;5054460;28;20033;-66
2024/01/07 10:14:22;;;;;;;19.75;8.48;;;;;;;9.40;49.36;101959.13;5054899;28;20377;-66
2024/01/07 10:16:49;;;;;;;16.02;7.40;;;;;;;9.41;49.01;101962.66;5054585;28;20033;-67
2024/01/07 10:19:22;;;;;;;12.07;8.20;;;;;;;9.41;49.37;101957.31;5054596;28;20040;-66
2024/01/07 10:21:52;;;;;;;;;;;;;;;9.40;49.57;101961.81;5053680;28;20033;-67
2024/01/07 10:24:18;;;;;;;16.48;7.50;;;;;;;9.38;49.18;101955.66;5053408;28;20455;-67
2024/01/07 10:26:43;;;;;;;12.40;7.35;;;;;;;9.38;49.34;101950.31;5060686;28;20124;-66
2024/01/07 10:29:08;;;;;;;14.57;8.60;;;;;;;9.40;49.07;101963.59;5054611;28;20111;-67
2024/01/07 10:31:34;;;;;;;18.48;8.23;;;;;;;9.41;49.71;101960.81;5053209;28;20033;-66
2024/01/07 10:34:00;;;;;;;16.58;7.75;;;;;;;9.45;49.34;101956.16;5054302;28;20112;-66
2024/01/07 10:36:25;;;;;;;21.00;9.27;;;;;;;9.46;49.12;101958.75;5054448;28;20032;-68
2024/01/07 10:38:51;;;;;;;14.38;7.22;;;;;;;9.49;49.18;101963.88;5054331;28;20037;-66
2024/01/07 10:41:20;;;;;;;17.95;8.10;;;;;;;9.49;49.18;101963.06;5062714;28;20033;-66
2024/01/07 10:43:49;;;;;;;14.02;6.70;;;;;;;9.54;48.73;101975.19;5054261;28;20451;-66
2024/01/07 10:46:16;;;;;;;16.13;8.13;;;;;;;9.53;48.30;101973.47;5062667;28;20491;-66
2024/01/07 10:49:16;;;;;;;15.82;7.88;;;;;;;9.54;49.08;101977.88;5073816;28;20167;-66
2024/01/07 10:51:42;;;;;;;14.68;7.88;;;;;;;9.52;48.44;101979.75;5055685;28;20036;-67
2024/01/07 10:54:09;;;;;;;15.35;7.80;;;;;;;9.51;49.00;101972.69;5072820;28;20039;-66
2024/01/07 10:56:45;;;;;;;17.90;8.77;;;;;;;9.52;49.04;101981.59;5072817;28;20500;-66
2024/01/07 10:59:11;;;;;;;15.02;7.47;;;;;;;9.53;48.85;101981.47;5073290;28;20115;-67
2024/01/07 11:01:37;;;;;;;14.68;8.05;;;;;;;9.50;48.90;101981.66;5073949;28;20112;-67
2024/01/07 11:04:14;;;;;;;16.63;8.68;;;;;;;9.53;49.05;101980.63;5072713;28;20051;-67
2024/01/07 11:06:51;;;;;;;12.38;7.88;;;;;;;9.51;48.48;101985.22;5072690;28;20033;-67
2024/01/07 11:09:33;;;;;;;14.70;8.13;;;;;;;9.49;48.83;101987.94;5072580;28;20075;-67
2024/01/07 11:11:59;;;;;;;15.40;7.78;;;;;;;9.47;48.87;101987.19;5055960;28;20407;-67
2024/01/07 11:14:53;;;;;;;15.48;8.27;;;;;;;9.43;48.90;101979.47;5073807;28;20028;-66